sensor_id;sensor_type;location;lat;lon;timestamp;temperature;humidity
60353;DHT22;46196;52.970;6.954;2024-02-21T00:02:11;9.70;99.90
60353;DHT22;46196;52.970;6.954;2024-02-21T00:04:37;9.70;99.90
60353;DHT22;46196;52.970;6.954;2024-02-21T00:07:04;9.60;99.90
60353;DHT22;46196;52.970;6.954;2024-02-21T00:09:30;9.70;99.90
60353;DHT22;46196;52.970;6.954;2024-02-21T00:11:56;9.60;99.90
60353;DHT22;46196;52.970;6.954;2024-02-21T00:14:22;9.60;99.90
60353;DHT22;46196;52.970;6.954;2024-02-21T00:16:48;9.70;99.90
60353;DHT22;46196;52.970;6.954;2024-02-21T00:19:13;9.70;99.90
60353;DHT22;46196;52.970;6.954;2024-02-21T00:21:40;9.70;99.90
60353;DHT22;46196;52.970;6.954;2024-02-21T00:24:06;9.70;99.90
60353;DHT22;46196;52.970;6.954;2024-02-21T00:26:31;9.70;99.90
60353;DHT22;46196;52.970;6.954;2024-02-21T00:28:57;9.70;99.90
60353;DHT22;46196;52.970;6.954;2024-02-21T00:31:23;9.70;99.90
60353;DHT22;46196;52.970;6.954;2024-02-21T00:33:48;9.70;99.90
60353;DHT22;46196;52.970;6.954;2024-02-21T00:36:14;9.70;99.90
60353;DHT22;46196;52.970;6.954;2024-02-21T00:38:40;9.70;99.90
60353;DHT22;46196;52.970;6.954;2024-02-21T00:41:06;9.70;99.90
60353;DHT22;46196;52.970;6.954;2024-02-21T00:43:32;9.80;99.90
60353;DHT22;46196;52.970;6.954;2024-02-21T00:45:57;9.80;99.90
60353;DHT22;46196;52.970;6.954;2024-02-21T00:48:23;9.80;99.90
60353;DHT22;46196;52.970;6.954;2024-02-21T00:50:48;9.80;99.90
60353;DHT22;46196;52.970;6.954;2024-02-21T00:53:14;9.80;99.90
60353;DHT22;46196;52.970;6.954;2024-02-21T00:55:40;9.80;99.90
60353;DHT22;46196;52.970;6.954;2024-02-21T00:58:05;9.80;99.90
60353;DHT22;46196;52.970;6.954;2024-02-21T01:00:31;9.70;99.90
60353;DHT22;46196;52.970;6.954;2024-02-21T01:02:57;9.70;99.90
60353;DHT22;46196;52.970;6.954;2024-02-21T01:05:23;9.70;99.90
60353;DHT22;46196;52.970;6.954;2024-02-21T01:07:48;9.80;99.90
60353;DHT22;46196;52.970;6.954;2024-02-21T01:10:14;9.80;99.90
60353;DHT22;46196;52.970;6.954;2024-02-21T01:12:39;9.80;99.90
60353;DHT22;46196;52.970;6.954;2024-02-21T01:15:05;9.90;99.90
60353;DHT22;46196;52.970;6.954;2024-02-21T01:17:31;9.90;99.90
60353;DHT22;46196;52.970;6.954;2024-02-21T01:19:57;9.80;99.90
60353;DHT22;46196;52.970;6.954;2024-02-21T01:22:22;9.80;99.90
60353;DHT22;46196;52.970;6.954;2024-02-21T01:24:48;9.80;99.90
60353;DHT22;46196;52.970;6.954;2024-02-21T01:27:14;9.70;99.90
60353;DHT22;46196;52.970;6.954;2024-02-21T01:29:39;9.70;99.90
60353;DHT22;46196;52.970;6.954;2024-02-21T01:32:05;9.70;99.90
60353;DHT22;46196;52.970;6.954;2024-02-21T01:34:31;9.70;99.90
60353;DHT22;46196;52.970;6.954;2024-02-21T01:36:57;9.70;99.90
60353;DHT22;46196;52.970;6.954;2024-02-21T01:39:22;9.70;99.90
60353;DHT22;46196;52.970;6.954;2024-02-21T01:41:48;9.60;99.90
60353;DHT22;46196;52.970;6.954;2024-02-21T01:44:14;9.70;99.90
60353;DHT22;46196;52.970;6.954;2024-02-21T01:46:39;9.60;99.90
60353;DHT22;46196;52.970;6.954;2024-02-21T01:49:06;9.60;99.90
60353;DHT22;46196;52.970;6.954;2024-02-21T01:51:32;9.60;99.90
60353;DHT22;46196;52.970;6.954;2024-02-21T01:53:58;9.60;99.90
60353;DHT22;46196;52.970;6.954;2024-02-21T01:56:23;9.60;99.90
60353;DHT22;46196;52.970;6.954;2024-02-21T01:58:50;9.60;99.90
60353;DHT22;46196;52.970;6.954;2024-02-21T02:01:17;9.60;99.90
60353;DHT22;46196;52.970;6.954;2024-02-21T02:03:44;9.70;99.90
60353;DHT22;46196;52.970;6.954;2024-02-21T02:06:10;9.70;99.90
60353;DHT22;46196;52.970;6.954;2024-02-21T02:08:36;9.60;99.90
60353;DHT22;46196;52.970;6.954;2024-02-21T02:11:02;9.60;99.90
60353;DHT22;46196;52.970;6.954;2024-02-21T02:13:28;9.60;99.90
60353;DHT22;46196;52.970;6.954;2024-02-21T02:15:54;9.50;99.90
60353;DHT22;46196;52.970;6.954;2024-02-21T02:18:20;9.50;99.90
60353;DHT22;46196;52.970;6.954;2024-02-21T02:20:46;9.40;99.90
60353;DHT22;46196;52.970;6.954;2024-02-21T02:23:31;9.40;99.90
60353;DHT22;46196;52.970;6.954;2024-02-21T02:25:57;9.30;99.90
60353;DHT22;46196;52.970;6.954;2024-02-21T02:28:23;9.30;99.90
60353;DHT22;46196;52.970;6.954;2024-02-21T02:30:50;9.20;99.90
60353;DHT22;46196;52.970;6.954;2024-02-21T02:33:15;9.20;99.90
60353;DHT22;46196;52.970;6.954;2024-02-21T02:35:44;9.20;99.90
60353;DHT22;46196;52.970;6.954;2024-02-21T02:38:10;9.10;99.90
60353;DHT22;46196;52.970;6.954;2024-02-21T02:40:38;9.10;99.90
60353;DHT22;46196;52.970;6.954;2024-02-21T02:43:04;9.10;99.90
60353;DHT22;46196;52.970;6.954;2024-02-21T02:45:30;9.10;99.90
60353;DHT22;46196;52.970;6.954;2024-02-21T02:47:57;9.10;99.90
60353;DHT22;46196;52.970;6.954;2024-02-21T02:50:23;9.10;99.90
60353;DHT22;46196;52.970;6.954;2024-02-21T02:52:49;9.10;99.90
60353;DHT22;46196;52.970;6.954;2024-02-21T02:55:14;9.10;99.90
60353;DHT22;46196;52.970;6.954;2024-02-21T02:57:40;9.00;99.90
60353;DHT22;46196;52.970;6.954;2024-02-21T03:00:08;9.00;99.90
60353;DHT22;46196;52.970;6.954;2024-02-21T03:02:35;9.00;99.90
60353;DHT22;46196;52.970;6.954;2024-02-21T03:05:00;9.00;99.90
60353;DHT22;46196;52.970;6.954;2024-02-21T03:07:26;9.00;99.90
60353;DHT22;46196;52.970;6.954;2024-02-21T03:09:52;9.00;99.90
60353;DHT22;46196;52.970;6.954;2024-02-21T03:12:18;9.00;99.90
60353;DHT22;46196;52.970;6.954;2024-02-21T03:14:52;8.60;99.90
60353;DHT22;46196;52.970;6.954;2024-02-21T03:17:18;9.00;99.90
60353;DHT22;46196;52.970;6.954;2024-02-21T03:19:43;9.00;99.90
60353;DHT22;46196;52.970;6.954;2024-02-21T03:22:09;9.00;99.90
60353;DHT22;46196;52.970;6.954;2024-02-21T03:24:34;9.00;99.90
60353;DHT22;46196;52.970;6.954;2024-02-21T03:27:00;9.00;99.90
60353;DHT22;46196;52.970;6.954;2024-02-21T03:29:26;9.00;99.90
60353;DHT22;46196;52.970;6.954;2024-02-21T03:31:52;9.00;99.90
60353;DHT22;46196;52.970;6.954;2024-02-21T03:34:18;9.00;99.90
60353;DHT22;46196;52.970;6.954;2024-02-21T03:36:43;9.00;99.90
60353;DHT22;46196;52.970;6.954;2024-02-21T03:39:09;9.10;99.90
60353;DHT22;46196;52.970;6.954;2024-02-21T03:41:35;9.10;99.90
60353;DHT22;46196;52.970;6.954;2024-02-21T03:44:01;9.00;99.90
60353;DHT22;46196;52.970;6.954;2024-02-21T03:46:27;9.00;99.90
60353;DHT22;46196;52.970;6.954;2024-02-21T03:48:53;9.00;99.90
60353;DHT22;46196;52.970;6.954;2024-02-21T03:51:18;9.10;99.90
60353;DHT22;46196;52.970;6.954;2024-02-21T03:53:44;9.10;99.90
60353;DHT22;46196;52.970;6.954;2024-02-21T03:56:10;9.10;99.90
60353;DHT22;46196;52.970;6.954;2024-02-21T03:58:35;9.10;99.90
60353;DHT22;46196;52.970;6.954;2024-02-21T04:01:01;9.10;99.90
60353;DHT22;46196;52.970;6.954;2024-02-21T04:03:28;9.20;99.90
60353;DHT22;46196;52.970;6.954;2024-02-21T04:05:53;9.10;99.90
60353;DHT22;46196;52.970;6.954;2024-02-21T04:08:19;9.10;99.90
60353;DHT22;46196;52.970;6.954;2024-02-21T04:10:45;9.10;99.90
60353;DHT22;46196;52.970;6.954;2024-02-21T04:13:11;9.10;99.90
60353;DHT22;46196;52.970;6.954;2024-02-21T04:15:36;9.10;99.90
60353;DHT22;46196;52.970;6.954;2024-02-21T04:18:02;9.00;99.90
60353;DHT22;46196;52.970;6.954;2024-02-21T04:20:31;9.10;99.90
60353;DHT22;46196;52.970;6.954;2024-02-21T04:22:58;9.10;99.90
60353;DHT22;46196;52.970;6.954;2024-02-21T04:25:23;9.10;99.90
60353;DHT22;46196;52.970;6.954;2024-02-21T04:27:49;9.00;99.90
60353;DHT22;46196;52.970;6.954;2024-02-21T04:30:15;9.10;99.90
60353;DHT22;46196;52.970;6.954;2024-02-21T04:32:41;9.00;99.90
60353;DHT22;46196;52.970;6.954;2024-02-21T04:35:07;9.10;99.90
60353;DHT22;46196;52.970;6.954;2024-02-21T04:37:33;9.10;99.90
60353;DHT22;46196;52.970;6.954;2024-02-21T04:39:59;9.10;99.90
60353;DHT22;46196;52.970;6.954;2024-02-21T04:42:25;9.00;99.90
60353;DHT22;46196;52.970;6.954;2024-02-21T04:44:51;9.00;99.90
60353;DHT22;46196;52.970;6.954;2024-02-21T04:47:17;9.00;99.90
60353;DHT22;46196;52.970;6.954;2024-02-21T04:49:44;9.00;99.90
60353;DHT22;46196;52.970;6.954;2024-02-21T04:52:10;9.00;99.90
60353;DHT22;46196;52.970;6.954;2024-02-21T04:54:35;9.00;99.90
60353;DHT22;46196;52.970;6.954;2024-02-21T04:57:01;9.00;99.90
60353;DHT22;46196;52.970;6.954;2024-02-21T04:59:27;9.00;99.90
60353;DHT22;46196;52.970;6.954;2024-02-21T05:01:53;9.00;99.90
60353;DHT22;46196;52.970;6.954;2024-02-21T05:04:18;9.00;99.90
60353;DHT22;46196;52.970;6.954;2024-02-21T05:06:44;9.00;99.90
60353;DHT22;46196;52.970;6.954;2024-02-21T05:09:10;9.00;99.90
60353;DHT22;46196;52.970;6.954;2024-02-21T05:11:36;9.00;99.90
60353;DHT22;46196;52.970;6.954;2024-02-21T05:14:03;9.00;99.90
60353;DHT22;46196;52.970;6.954;2024-02-21T05:16:29;9.00;99.90
60353;DHT22;46196;52.970;6.954;2024-02-21T05:18:55;9.00;99.90
60353;DHT22;46196;52.970;6.954;2024-02-21T05:21:23;9.00;99.90
60353;DHT22;46196;52.970;6.954;2024-02-21T05:23:49;9.00;99.90
60353;DHT22;46196;52.970;6.954;2024-02-21T05:26:25;9.00;99.90
60353;DHT22;46196;52.970;6.954;2024-02-21T05:28:52;9.00;99.90
60353;DHT22;46196;52.970;6.954;2024-02-21T05:31:18;8.90;99.90
60353;DHT22;46196;52.970;6.954;2024-02-21T05:33:44;8.90;99.90
60353;DHT22;46196;52.970;6.954;2024-02-21T05:36:10;8.90;99.90
60353;DHT22;46196;52.970;6.954;2024-02-21T05:38:36;9.00;99.90
60353;DHT22;46196;52.970;6.954;2024-02-21T05:41:02;9.00;99.90
60353;DHT22;46196;52.970;6.954;2024-02-21T05:43:28;9.00;99.90
60353;DHT22;46196;52.970;6.954;2024-02-21T05:45:54;9.00;99.90
60353;DHT22;46196;52.970;6.954;2024-02-21T05:48:21;9.10;99.90
60353;DHT22;46196;52.970;6.954;2024-02-21T05:50:47;9.00;99.90
60353;DHT22;46196;52.970;6.954;2024-02-21T05:53:13;9.00;99.90
60353;DHT22;46196;52.970;6.954;2024-02-21T05:55:39;9.00;99.90
60353;DHT22;46196;52.970;6.954;2024-02-21T05:58:04;9.00;99.90
60353;DHT22;46196;52.970;6.954;2024-02-21T06:00:31;9.00;99.90
60353;DHT22;46196;52.970;6.954;2024-02-21T06:02:57;9.10;99.90
60353;DHT22;46196;52.970;6.954;2024-02-21T06:05:23;9.00;99.90
60353;DHT22;46196;52.970;6.954;2024-02-21T06:07:49;9.00;99.90
60353;DHT22;46196;52.970;6.954;2024-02-21T06:10:15;9.00;99.90
60353;DHT22;46196;52.970;6.954;2024-02-21T06:12:40;9.10;99.90
60353;DHT22;46196;52.970;6.954;2024-02-21T06:15:06;9.00;99.90
60353;DHT22;46196;52.970;6.954;2024-02-21T06:17:33;9.00;99.90
60353;DHT22;46196;52.970;6.954;2024-02-21T06:19:58;9.00;99.90
60353;DHT22;46196;52.970;6.954;2024-02-21T06:22:24;9.00;99.90
60353;DHT22;46196;52.970;6.954;2024-02-21T06:24:50;9.10;99.90
60353;DHT22;46196;52.970;6.954;2024-02-21T06:27:16;9.00;99.90
60353;DHT22;46196;52.970;6.954;2024-02-21T06:29:42;9.00;99.90
60353;DHT22;46196;52.970;6.954;2024-02-21T06:32:08;9.00;99.90
60353;DHT22;46196;52.970;6.954;2024-02-21T06:34:34;9.00;99.90
60353;DHT22;46196;52.970;6.954;2024-02-21T06:37:00;9.00;99.90
60353;DHT22;46196;52.970;6.954;2024-02-21T06:39:25;9.00;99.90
60353;DHT22;46196;52.970;6.954;2024-02-21T06:41:52;9.00;99.90
60353;DHT22;46196;52.970;6.954;2024-02-21T06:44:19;9.00;99.90
60353;DHT22;46196;52.970;6.954;2024-02-21T06:46:45;9.00;99.90
60353;DHT22;46196;52.970;6.954;2024-02-21T06:49:10;9.10;99.90
60353;DHT22;46196;52.970;6.954;2024-02-21T06:51:44;9.00;99.90
60353;DHT22;46196;52.970;6.954;2024-02-21T06:54:10;9.00;99.90
60353;DHT22;46196;52.970;6.954;2024-02-21T06:56:36;9.00;99.90
60353;DHT22;46196;52.970;6.954;2024-02-21T06:59:02;9.00;99.90
60353;DHT22;46196;52.970;6.954;2024-02-21T07:01:29;9.00;99.90
60353;DHT22;46196;52.970;6.954;2024-02-21T07:03:55;9.10;99.90
60353;DHT22;46196;52.970;6.954;2024-02-21T07:06:21;9.00;99.90
60353;DHT22;46196;52.970;6.954;2024-02-21T07:08:47;9.00;99.90
60353;DHT22;46196;52.970;6.954;2024-02-21T07:11:13;9.10;99.90
60353;DHT22;46196;52.970;6.954;2024-02-21T07:13:38;9.10;99.90
60353;DHT22;46196;52.970;6.954;2024-02-21T07:16:05;9.00;99.90
60353;DHT22;46196;52.970;6.954;2024-02-21T07:18:30;9.00;99.90
60353;DHT22;46196;52.970;6.954;2024-02-21T07:20:56;9.00;99.90
60353;DHT22;46196;52.970;6.954;2024-02-21T07:23:22;9.00;99.90
60353;DHT22;46196;52.970;6.954;2024-02-21T07:25:48;9.00;99.90
60353;DHT22;46196;52.970;6.954;2024-02-21T07:28:13;9.00;99.90
60353;DHT22;46196;52.970;6.954;2024-02-21T07:30:39;9.00;99.90
60353;DHT22;46196;52.970;6.954;2024-02-21T07:33:05;9.00;99.90
60353;DHT22;46196;52.970;6.954;2024-02-21T07:35:32;9.00;99.90
60353;DHT22;46196;52.970;6.954;2024-02-21T07:37:58;9.00;99.90
60353;DHT22;46196;52.970;6.954;2024-02-21T07:40:24;9.00;99.90
60353;DHT22;46196;52.970;6.954;2024-02-21T07:42:49;9.00;99.90
60353;DHT22;46196;52.970;6.954;2024-02-21T07:45:15;9.00;99.90
60353;DHT22;46196;52.970;6.954;2024-02-21T07:47:41;9.10;99.90
60353;DHT22;46196;52.970;6.954;2024-02-21T07:50:07;9.10;99.90
60353;DHT22;46196;52.970;6.954;2024-02-21T07:52:34;9.10;99.90
60353;DHT22;46196;52.970;6.954;2024-02-21T07:54:59;9.00;99.90
60353;DHT22;46196;52.970;6.954;2024-02-21T07:57:25;9.00;99.90
60353;DHT22;46196;52.970;6.954;2024-02-21T07:59:51;9.00;99.90
60353;DHT22;46196;52.970;6.954;2024-02-21T08:02:17;9.00;99.90
60353;DHT22;46196;52.970;6.954;2024-02-21T08:04:43;9.00;99.90
60353;DHT22;46196;52.970;6.954;2024-02-21T08:07:09;9.00;99.90
60353;DHT22;46196;52.970;6.954;2024-02-21T08:09:35;9.00;99.90
60353;DHT22;46196;52.970;6.954;2024-02-21T08:12:03;9.00;99.90
60353;DHT22;46196;52.970;6.954;2024-02-21T08:14:29;9.00;99.90
60353;DHT22;46196;52.970;6.954;2024-02-21T08:16:56;9.00;99.90
60353;DHT22;46196;52.970;6.954;2024-02-21T08:19:22;9.00;99.90
60353;DHT22;46196;52.970;6.954;2024-02-21T08:21:48;9.00;99.90
60353;DHT22;46196;52.970;6.954;2024-02-21T08:24:14;8.90;99.90
60353;DHT22;46196;52.970;6.954;2024-02-21T08:26:43;9.00;99.90
60353;DHT22;46196;52.970;6.954;2024-02-21T08:29:11;9.00;99.90
60353;DHT22;46196;52.970;6.954;2024-02-21T08:31:37;9.00;99.90
60353;DHT22;46196;52.970;6.954;2024-02-21T08:34:03;9.00;99.90
60353;DHT22;46196;52.970;6.954;2024-02-21T08:36:33;8.90;99.90
60353;DHT22;46196;52.970;6.954;2024-02-21T08:39:00;8.90;99.90
60353;DHT22;46196;52.970;6.954;2024-02-21T08:41:26;8.90;99.90
60353;DHT22;46196;52.970;6.954;2024-02-21T08:43:53;8.90;99.90
60353;DHT22;46196;52.970;6.954;2024-02-21T08:46:22;8.90;99.90
60353;DHT22;46196;52.970;6.954;2024-02-21T08:48:50;8.90;99.90
60353;DHT22;46196;52.970;6.954;2024-02-21T08:51:17;9.00;99.90
60353;DHT22;46196;52.970;6.954;2024-02-21T08:53:44;9.00;99.90
60353;DHT22;46196;52.970;6.954;2024-02-21T08:56:09;9.10;99.90
60353;DHT22;46196;52.970;6.954;2024-02-21T08:58:36;9.00;99.90
60353;DHT22;46196;52.970;6.954;2024-02-21T09:01:05;8.90;99.90
60353;DHT22;46196;52.970;6.954;2024-02-21T09:03:32;8.90;99.90
60353;DHT22;46196;52.970;6.954;2024-02-21T09:05:58;8.90;99.90
60353;DHT22;46196;52.970;6.954;2024-02-21T09:08:24;8.90;99.90
60353;DHT22;46196;52.970;6.954;2024-02-21T09:10:50;8.90;99.90
60353;DHT22;46196;52.970;6.954;2024-02-21T09:13:16;8.90;99.90
60353;DHT22;46196;52.970;6.954;2024-02-21T09:15:42;8.90;99.90
60353;DHT22;46196;52.970;6.954;2024-02-21T09:18:08;8.90;99.90
60353;DHT22;46196;52.970;6.954;2024-02-21T09:20:34;8.90;99.90
60353;DHT22;46196;52.970;6.954;2024-02-21T09:23:00;8.90;99.90
60353;DHT22;46196;52.970;6.954;2024-02-21T09:25:26;8.90;99.90
60353;DHT22;46196;52.970;6.954;2024-02-21T09:27:54;8.90;99.90
60353;DHT22;46196;52.970;6.954;2024-02-21T09:30:20;9.00;99.90
60353;DHT22;46196;52.970;6.954;2024-02-21T09:32:46;9.00;99.90
60353;DHT22;46196;52.970;6.954;2024-02-21T09:35:12;9.00;99.90
60353;DHT22;46196;52.970;6.954;2024-02-21T09:37:41;9.00;99.90
60353;DHT22;46196;52.970;6.954;2024-02-21T09:40:07;9.10;99.90
60353;DHT22;46196;52.970;6.954;2024-02-21T09:42:40;9.10;99.90
60353;DHT22;46196;52.970;6.954;2024-02-21T09:45:20;9.20;99.90
60353;DHT22;46196;52.970;6.954;2024-02-21T09:50:34;9.30;99.90
60353;DHT22;46196;52.970;6.954;2024-02-21T09:53:02;9.30;99.90
60353;DHT22;46196;52.970;6.954;2024-02-21T09:55:31;9.30;99.90
60353;DHT22;46196;52.970;6.954;2024-02-21T09:58:01;9.30;99.90
60353;DHT22;46196;52.970;6.954;2024-02-21T10:00:27;9.30;99.90
60353;DHT22;46196;52.970;6.954;2024-02-21T10:02:54;9.40;99.90
60353;DHT22;46196;52.970;6.954;2024-02-21T10:05:19;9.40;99.90
60353;DHT22;46196;52.970;6.954;2024-02-21T10:07:45;9.50;99.90
60353;DHT22;46196;52.970;6.954;2024-02-21T10:10:11;9.50;99.90
60353;DHT22;46196;52.970;6.954;2024-02-21T10:12:37;9.50;99.90
60353;DHT22;46196;52.970;6.954;2024-02-21T10:15:12;9.60;99.90
60353;DHT22;46196;52.970;6.954;2024-02-21T10:17:38;9.60;99.90
60353;DHT22;46196;52.970;6.954;2024-02-21T10:20:11;9.60;99.90
60353;DHT22;46196;52.970;6.954;2024-02-21T10:22:38;9.60;99.90
60353;DHT22;46196;52.970;6.954;2024-02-21T10:25:08;9.70;99.90
60353;DHT22;46196;52.970;6.954;2024-02-21T10:27:34;9.70;99.90
60353;DHT22;46196;52.970;6.954;2024-02-21T10:30:01;9.70;99.90
60353;DHT22;46196;52.970;6.954;2024-02-21T10:32:27;9.70;99.90
60353;DHT22;46196;52.970;6.954;2024-02-21T10:35:02;9.70;99.90
60353;DHT22;46196;52.970;6.954;2024-02-21T10:37:29;9.70;99.90
60353;DHT22;46196;52.970;6.954;2024-02-21T10:39:54;9.60;99.90
60353;DHT22;46196;52.970;6.954;2024-02-21T10:42:22;9.60;99.90
60353;DHT22;46196;52.970;6.954;2024-02-21T10:44:51;9.60;99.90
60353;DHT22;46196;52.970;6.954;2024-02-21T10:47:22;9.60;99.90
60353;DHT22;46196;52.970;6.954;2024-02-21T10:49:53;9.60;99.90
60353;DHT22;46196;52.970;6.954;2024-02-21T10:52:55;9.60;99.90
60353;DHT22;46196;52.970;6.954;2024-02-21T10:55:33;9.70;99.90
60353;DHT22;46196;52.970;6.954;2024-02-21T10:58:01;9.60;99.90
60353;DHT22;46196;52.970;6.954;2024-02-21T11:00:28;9.70;99.90
60353;DHT22;46196;52.970;6.954;2024-02-21T11:02:57;9.60;99.90
60353;DHT22;46196;52.970;6.954;2024-02-21T11:05:24;9.70;99.90
60353;DHT22;46196;52.970;6.954;2024-02-21T11:07:50;9.70;99.90
60353;DHT22;46196;52.970;6.954;2024-02-21T11:10:26;9.70;99.90
60353;DHT22;46196;52.970;6.954;2024-02-21T11:13:10;9.80;99.90
60353;DHT22;46196;52.970;6.954;2024-02-21T11:15:36;9.80;99.90
60353;DHT22;46196;52.970;6.954;2024-02-21T11:18:02;9.90;99.90
60353;DHT22;46196;52.970;6.954;2024-02-21T11:20:35;9.90;99.90
60353;DHT22;46196;52.970;6.954;2024-02-21T11:23:01;10.00;99.90
60353;DHT22;46196;52.970;6.954;2024-02-21T11:25:28;10.00;99.90
60353;DHT22;46196;52.970;6.954;2024-02-21T11:28:03;10.00;99.90
60353;DHT22;46196;52.970;6.954;2024-02-21T11:30:36;10.00;99.90
60353;DHT22;46196;52.970;6.954;2024-02-21T11:33:05;10.00;99.90
60353;DHT22;46196;52.970;6.954;2024-02-21T11:35:34;10.00;99.90
60353;DHT22;46196;52.970;6.954;2024-02-21T11:38:10;10.00;99.90
60353;DHT22;46196;52.970;6.954;2024-02-21T11:40:39;10.00;99.90
60353;DHT22;46196;52.970;6.954;2024-02-21T11:43:05;10.00;99.90
60353;DHT22;46196;52.970;6.954;2024-02-21T11:45:31;10.00;99.90
60353;DHT22;46196;52.970;6.954;2024-02-21T11:47:59;10.00;99.90
60353;DHT22;46196;52.970;6.954;2024-02-21T11:50:26;10.00;99.90
60353;DHT22;46196;52.970;6.954;2024-02-21T11:52:54;10.00;99.90
60353;DHT22;46196;52.970;6.954;2024-02-21T11:55:21;10.00;99.90
60353;DHT22;46196;52.970;6.954;2024-02-21T11:57:50;10.00;99.90
60353;DHT22;46196;52.970;6.954;2024-02-21T12:00:17;10.10;99.90
60353;DHT22;46196;52.970;6.954;2024-02-21T12:02:50;10.10;99.90
60353;DHT22;46196;52.970;6.954;2024-02-21T12:05:16;10.10;99.90
60353;DHT22;46196;52.970;6.954;2024-02-21T12:07:44;10.10;99.90
60353;DHT22;46196;52.970;6.954;2024-02-21T12:10:10;10.00;99.90
60353;DHT22;46196;52.970;6.954;2024-02-21T12:12:37;10.00;99.90
60353;DHT22;46196;52.970;6.954;2024-02-21T12:15:06;10.00;99.90
60353;DHT22;46196;52.970;6.954;2024-02-21T12:17:39;10.00;99.90
60353;DHT22;46196;52.970;6.954;2024-02-21T12:20:06;10.00;99.90
60353;DHT22;46196;52.970;6.954;2024-02-21T12:22:35;10.00;99.90
60353;DHT22;46196;52.970;6.954;2024-02-21T12:25:07;10.00;99.90
60353;DHT22;46196;52.970;6.954;2024-02-21T12:27:41;10.00;99.90
60353;DHT22;46196;52.970;6.954;2024-02-21T12:30:07;10.00;99.90
60353;DHT22;46196;52.970;6.954;2024-02-21T12:32:35;10.00;99.90
60353;DHT22;46196;52.970;6.954;2024-02-21T12:35:01;10.10;99.90
60353;DHT22;46196;52.970;6.954;2024-02-21T12:37:28;10.00;99.90
60353;DHT22;46196;52.970;6.954;2024-02-21T12:39:54;10.10;99.90
60353;DHT22;46196;52.970;6.954;2024-02-21T12:42:20;10.10;99.90
60353;DHT22;46196;52.970;6.954;2024-02-21T12:44:45;10.10;99.90
60353;DHT22;46196;52.970;6.954;2024-02-21T12:47:11;10.00;99.90
60353;DHT22;46196;52.970;6.954;2024-02-21T12:49:37;10.10;99.90
60353;DHT22;46196;52.970;6.954;2024-02-21T12:52:03;10.00;99.90
60353;DHT22;46196;52.970;6.954;2024-02-21T12:54:29;10.00;99.90
60353;DHT22;46196;52.970;6.954;2024-02-21T12:56:56;10.10;99.90
60353;DHT22;46196;52.970;6.954;2024-02-21T12:59:22;10.10;99.90
60353;DHT22;46196;52.970;6.954;2024-02-21T13:01:48;10.20;99.90
60353;DHT22;46196;52.970;6.954;2024-02-21T13:04:14;10.20;99.90
60353;DHT22;46196;52.970;6.954;2024-02-21T13:06:39;10.10;99.90
60353;DHT22;46196;52.970;6.954;2024-02-21T13:09:05;10.10;99.90
60353;DHT22;46196;52.970;6.954;2024-02-21T13:11:34;10.10;99.90
60353;DHT22;46196;52.970;6.954;2024-02-21T13:14:00;10.10;99.90
60353;DHT22;46196;52.970;6.954;2024-02-21T13:16:26;10.10;99.90
60353;DHT22;46196;52.970;6.954;2024-02-21T13:18:52;10.00;99.90
60353;DHT22;46196;52.970;6.954;2024-02-21T13:21:18;10.00;99.90
60353;DHT22;46196;52.970;6.954;2024-02-21T13:23:44;10.00;99.90
60353;DHT22;46196;52.970;6.954;2024-02-21T13:26:10;10.00;99.90
60353;DHT22;46196;52.970;6.954;2024-02-21T13:28:36;10.00;99.90
60353;DHT22;46196;52.970;6.954;2024-02-21T13:31:02;10.00;99.90
60353;DHT22;46196;52.970;6.954;2024-02-21T13:33:28;10.00;99.90
60353;DHT22;46196;52.970;6.954;2024-02-21T13:35:54;10.10;99.90
60353;DHT22;46196;52.970;6.954;2024-02-21T13:38:20;10.10;99.90
60353;DHT22;46196;52.970;6.954;2024-02-21T13:40:45;10.10;99.90
60353;DHT22;46196;52.970;6.954;2024-02-21T13:43:11;10.10;99.90
60353;DHT22;46196;52.970;6.954;2024-02-21T13:45:38;10.10;99.90
60353;DHT22;46196;52.970;6.954;2024-02-21T13:48:04;10.10;99.90
60353;DHT22;46196;52.970;6.954;2024-02-21T13:50:31;10.20;99.90
60353;DHT22;46196;52.970;6.954;2024-02-21T13:52:57;10.20;99.90
60353;DHT22;46196;52.970;6.954;2024-02-21T13:55:23;10.20;99.90
60353;DHT22;46196;52.970;6.954;2024-02-21T13:57:51;10.20;99.90
60353;DHT22;46196;52.970;6.954;2024-02-21T14:00:18;10.20;99.90
60353;DHT22;46196;52.970;6.954;2024-02-21T14:02:45;10.20;99.90
60353;DHT22;46196;52.970;6.954;2024-02-21T14:05:11;10.20;99.90
60353;DHT22;46196;52.970;6.954;2024-02-21T14:07:38;10.20;99.90
60353;DHT22;46196;52.970;6.954;2024-02-21T14:10:04;10.20;99.90
60353;DHT22;46196;52.970;6.954;2024-02-21T14:12:30;10.10;99.90
60353;DHT22;46196;52.970;6.954;2024-02-21T14:14:57;10.10;99.90
60353;DHT22;46196;52.970;6.954;2024-02-21T14:17:24;10.20;99.90
60353;DHT22;46196;52.970;6.954;2024-02-21T14:19:50;10.10;99.90
60353;DHT22;46196;52.970;6.954;2024-02-21T14:22:17;10.10;99.90
60353;DHT22;46196;52.970;6.954;2024-02-21T14:24:42;10.10;99.90
60353;DHT22;46196;52.970;6.954;2024-02-21T14:27:08;10.00;99.90
60353;DHT22;46196;52.970;6.954;2024-02-21T14:29:34;10.00;99.90
60353;DHT22;46196;52.970;6.954;2024-02-21T14:32:00;9.90;99.90
60353;DHT22;46196;52.970;6.954;2024-02-21T14:34:26;9.90;99.90
60353;DHT22;46196;52.970;6.954;2024-02-21T14:36:52;9.90;99.90
60353;DHT22;46196;52.970;6.954;2024-02-21T14:39:18;9.80;99.90
60353;DHT22;46196;52.970;6.954;2024-02-21T14:41:44;9.80;99.90
60353;DHT22;46196;52.970;6.954;2024-02-21T14:44:09;9.80;99.90
60353;DHT22;46196;52.970;6.954;2024-02-21T14:46:36;9.80;99.90
60353;DHT22;46196;52.970;6.954;2024-02-21T14:49:03;9.80;99.90
60353;DHT22;46196;52.970;6.954;2024-02-21T14:51:29;9.70;99.90
60353;DHT22;46196;52.970;6.954;2024-02-21T14:53:55;9.70;99.90
60353;DHT22;46196;52.970;6.954;2024-02-21T14:56:21;9.70;99.90
60353;DHT22;46196;52.970;6.954;2024-02-21T14:58:48;9.70;99.90
60353;DHT22;46196;52.970;6.954;2024-02-21T15:01:14;9.70;99.90
60353;DHT22;46196;52.970;6.954;2024-02-21T15:03:40;9.70;99.90
60353;DHT22;46196;52.970;6.954;2024-02-21T15:06:06;9.70;99.90
60353;DHT22;46196;52.970;6.954;2024-02-21T15:08:31;9.70;99.90
60353;DHT22;46196;52.970;6.954;2024-02-21T15:10:57;9.70;99.90
60353;DHT22;46196;52.970;6.954;2024-02-21T15:13:23;9.70;99.90
60353;DHT22;46196;52.970;6.954;2024-02-21T15:15:49;9.70;99.90
60353;DHT22;46196;52.970;6.954;2024-02-21T15:18:17;9.70;99.90
60353;DHT22;46196;52.970;6.954;2024-02-21T15:20:42;9.70;99.90
60353;DHT22;46196;52.970;6.954;2024-02-21T15:23:08;9.70;99.90
60353;DHT22;46196;52.970;6.954;2024-02-21T15:25:34;9.70;99.90
60353;DHT22;46196;52.970;6.954;2024-02-21T15:28:00;9.70;99.90
60353;DHT22;46196;52.970;6.954;2024-02-21T15:30:28;9.70;99.90
60353;DHT22;46196;52.970;6.954;2024-02-21T15:32:57;9.70;99.90
60353;DHT22;46196;52.970;6.954;2024-02-21T15:35:27;9.70;99.90
60353;DHT22;46196;52.970;6.954;2024-02-21T15:37:53;9.70;99.90
60353;DHT22;46196;52.970;6.954;2024-02-21T15:40:24;9.70;99.90
60353;DHT22;46196;52.970;6.954;2024-02-21T15:42:50;9.80;99.90